sensor_id;sensor_type;location;lat;lon;timestamp;pressure;altitude;pressure_sealevel;temperature;humidity
67457;BME280;54319;52.038;4.640;2023-02-01T00:00:26;102176.81;;;6.02;72.14
67457;BME280;54319;52.038;4.640;2023-02-01T00:02:52;102167.69;;;6.03;72.04
67457;BME280;54319;52.038;4.640;2023-02-01T00:05:21;102194.03;;;6.11;72.05
67457;BME280;54319;52.038;4.640;2023-02-01T00:07:48;102198.84;;;6.17;71.68
67457;BME280;54319;52.038;4.640;2023-02-01T00:10:16;102193.19;;;6.10;71.87
67457;BME280;54319;52.038;4.640;2023-02-01T00:12:42;102198.03;;;6.06;71.76
67457;BME280;54319;52.038;4.640;2023-02-01T00:15:11;102179.53;;;6.02;71.84
67457;BME280;54319;52.038;4.640;2023-02-01T00:17:38;102182.22;;;6.02;72.11
67457;BME280;54319;52.038;4.640;2023-02-01T00:20:06;102180.53;;;6.01;72.04
67457;BME280;54319;52.038;4.640;2023-02-01T00:22:33;102157.63;;;5.85;71.99
67457;BME280;54319;52.038;4.640;2023-02-01T00:25:00;102190.63;;;5.99;71.95
67457;BME280;54319;52.038;4.640;2023-02-01T00:27:27;102192.94;;;5.93;72.59
67457;BME280;54319;52.038;4.640;2023-02-01T00:29:55;102176.38;;;5.97;72.04
67457;BME280;54319;52.038;4.640;2023-02-01T00:32:23;102195.50;;;5.95;72.04
67457;BME280;54319;52.038;4.640;2023-02-01T00:34:50;102184.09;;;5.91;71.82
67457;BME280;54319;52.038;4.640;2023-02-01T00:37:17;102174.16;;;5.82;71.65
67457;BME280;54319;52.038;4.640;2023-02-01T00:39:44;102118.81;;;5.57;71.67
67457;BME280;54319;52.038;4.640;2023-02-01T00:42:10;102181.50;;;6.00;71.46
67457;BME280;54319;52.038;4.640;2023-02-01T00:44:38;102169.41;;;5.94;71.58
67457;BME280;54319;52.038;4.640;2023-02-01T00:47:04;102183.09;;;6.02;71.35
67457;BME280;54319;52.038;4.640;2023-02-01T00:49:33;102189.34;;;6.03;71.26
67457;BME280;54319;52.038;4.640;2023-02-01T00:51:59;102174.09;;;6.02;71.10
67457;BME280;54319;52.038;4.640;2023-02-01T00:54:26;102165.97;;;6.02;71.43
67457;BME280;54319;52.038;4.640;2023-02-01T00:56:53;102136.91;;;5.94;70.64
67457;BME280;54319;52.038;4.640;2023-02-01T00:59:20;102151.84;;;6.08;70.97
67457;BME280;54319;52.038;4.640;2023-02-01T01:01:47;102155.00;;;6.03;71.18
67457;BME280;54319;52.038;4.640;2023-02-01T01:04:15;102155.97;;;6.12;70.81
67457;BME280;54319;52.038;4.640;2023-02-01T01:06:43;102141.03;;;5.98;71.25
67457;BME280;54319;52.038;4.640;2023-02-01T01:09:10;102142.34;;;5.94;71.62
67457;BME280;54319;52.038;4.640;2023-02-01T01:11:37;102159.97;;;6.08;71.49
67457;BME280;54319;52.038;4.640;2023-02-01T01:14:05;102166.25;;;6.08;71.71
67457;BME280;54319;52.038;4.640;2023-02-01T01:16:33;102163.09;;;6.13;71.57
67457;BME280;54319;52.038;4.640;2023-02-01T01:19:01;102112.28;;;5.87;71.94
67457;BME280;54319;52.038;4.640;2023-02-01T01:21:29;102147.84;;;6.12;71.96
67457;BME280;54319;52.038;4.640;2023-02-01T01:23:57;102153.00;;;6.05;72.63
67457;BME280;54319;52.038;4.640;2023-02-01T01:26:28;102146.00;;;6.03;72.89
67457;BME280;54319;52.038;4.640;2023-02-01T01:28:56;102149.16;;;6.08;72.98
67457;BME280;54319;52.038;4.640;2023-02-01T01:31:24;102155.13;;;6.02;73.04
67457;BME280;54319;52.038;4.640;2023-02-01T01:33:53;102173.78;;;6.05;73.33
67457;BME280;54319;52.038;4.640;2023-02-01T01:36:20;102161.69;;;6.09;73.33
67457;BME280;54319;52.038;4.640;2023-02-01T01:38:48;102137.31;;;5.99;73.47
67457;BME280;54319;52.038;4.640;2023-02-01T01:41:19;102137.13;;;6.11;73.59
67457;BME280;54319;52.038;4.640;2023-02-01T01:43:49;102151.94;;;6.16;73.77
67457;BME280;54319;52.038;4.640;2023-02-01T01:46:18;102174.69;;;6.33;73.39
67457;BME280;54319;52.038;4.640;2023-02-01T01:48:46;102162.84;;;6.34;73.55
67457;BME280;54319;52.038;4.640;2023-02-01T01:51:17;102145.00;;;6.32;73.40
67457;BME280;54319;52.038;4.640;2023-02-01T01:53:55;102142.53;;;6.39;73.24
67457;BME280;54319;52.038;4.640;2023-02-01T01:56:26;102150.94;;;6.45;73.23
67457;BME280;54319;52.038;4.640;2023-02-01T01:58:55;102145.41;;;6.37;73.70
67457;BME280;54319;52.038;4.640;2023-02-01T02:01:22;102150.13;;;6.35;73.49
67457;BME280;54319;52.038;4.640;2023-02-01T02:03:50;102138.75;;;6.31;73.88
67457;BME280;54319;52.038;4.640;2023-02-01T02:06:27;102143.16;;;6.32;73.65
67457;BME280;54319;52.038;4.640;2023-02-01T02:08:58;102134.03;;;6.33;73.67
67457;BME280;54319;52.038;4.640;2023-02-01T02:11:26;102132.06;;;6.26;74.12
67457;BME280;54319;52.038;4.640;2023-02-01T02:13:55;102138.44;;;6.34;73.80
67457;BME280;54319;52.038;4.640;2023-02-01T02:16:40;102140.78;;;6.47;73.21
67457;BME280;54319;52.038;4.640;2023-02-01T02:25:46;102119.06;;;6.29;73.77
67457;BME280;54319;52.038;4.640;2023-02-01T02:31:48;102121.38;;;6.42;73.06
67457;BME280;54319;52.038;4.640;2023-02-01T02:34:24;102112.16;;;6.35;73.63
67457;BME280;54319;52.038;4.640;2023-02-01T02:37:03;102089.47;;;6.18;73.40
67457;BME280;54319;52.038;4.640;2023-02-01T02:39:38;102120.00;;;6.38;73.34
67457;BME280;54319;52.038;4.640;2023-02-01T02:42:15;102123.56;;;6.39;72.58
67457;BME280;54319;52.038;4.640;2023-02-01T02:45:05;102121.25;;;6.44;72.94
67457;BME280;54319;52.038;4.640;2023-02-01T02:47:56;102127.06;;;6.49;72.84
67457;BME280;54319;52.038;4.640;2023-02-01T02:50:33;102123.22;;;6.51;73.07
67457;BME280;54319;52.038;4.640;2023-02-01T02:53:23;102112.44;;;6.60;72.27
67457;BME280;54319;52.038;4.640;2023-02-01T02:56:20;102107.63;;;6.54;72.08
67457;BME280;54319;52.038;4.640;2023-02-01T02:59:06;102094.38;;;6.50;71.98
67457;BME280;54319;52.038;4.640;2023-02-01T03:01:53;102097.25;;;6.49;71.72
67457;BME280;54319;52.038;4.640;2023-02-01T03:04:38;102079.13;;;6.49;71.89
67457;BME280;54319;52.038;4.640;2023-02-01T03:07:15;102080.28;;;6.47;71.92
67457;BME280;54319;52.038;4.640;2023-02-01T03:10:05;102085.25;;;6.51;72.08
67457;BME280;54319;52.038;4.640;2023-02-01T03:12:37;102044.25;;;6.18;72.10
67457;BME280;54319;52.038;4.640;2023-02-01T03:15:24;102028.94;;;6.09;72.96
67457;BME280;54319;52.038;4.640;2023-02-01T03:17:53;102067.97;;;6.34;73.03
67457;BME280;54319;52.038;4.640;2023-02-01T03:20:23;102085.56;;;6.30;73.58
67457;BME280;54319;52.038;4.640;2023-02-01T03:22:52;102024.91;;;5.85;73.51
67457;BME280;54319;52.038;4.640;2023-02-01T03:25:23;102101.25;;;6.27;73.16
67457;BME280;54319;52.038;4.640;2023-02-01T03:27:53;102088.00;;;6.23;73.53
67457;BME280;54319;52.038;4.640;2023-02-01T03:30:24;102088.00;;;6.23;73.78
67457;BME280;54319;52.038;4.640;2023-02-01T03:32:54;102088.78;;;6.34;73.54
67457;BME280;54319;52.038;4.640;2023-02-01T03:35:28;102079.97;;;6.32;73.67
67457;BME280;54319;52.038;4.640;2023-02-01T03:38:06;102082.97;;;6.29;73.46
67457;BME280;54319;52.038;4.640;2023-02-01T03:40:36;102099.84;;;6.22;73.43
67457;BME280;54319;52.038;4.640;2023-02-01T03:43:04;102096.91;;;6.34;73.04
67457;BME280;54319;52.038;4.640;2023-02-01T03:45:36;102035.38;;;5.98;72.94
67457;BME280;54319;52.038;4.640;2023-02-01T03:48:06;102064.69;;;6.13;72.92
67457;BME280;54319;52.038;4.640;2023-02-01T03:50:35;102070.41;;;6.10;73.53
67457;BME280;54319;52.038;4.640;2023-02-01T03:53:07;102085.22;;;6.15;73.46
67457;BME280;54319;52.038;4.640;2023-02-01T03:55:36;102085.53;;;6.12;73.51
67457;BME280;54319;52.038;4.640;2023-02-01T03:58:06;102098.06;;;6.13;73.48
67457;BME280;54319;52.038;4.640;2023-02-01T04:00:35;102095.44;;;6.21;73.14
67457;BME280;54319;52.038;4.640;2023-02-01T04:03:03;102090.84;;;6.22;73.23
67457;BME280;54319;52.038;4.640;2023-02-01T04:05:31;102084.59;;;6.21;73.32
67457;BME280;54319;52.038;4.640;2023-02-01T04:07:58;102091.72;;;6.22;73.34
67457;BME280;54319;52.038;4.640;2023-02-01T04:10:27;102092.13;;;6.28;73.37
67457;BME280;54319;52.038;4.640;2023-02-01T04:12:54;102094.25;;;6.24;73.89
67457;BME280;54319;52.038;4.640;2023-02-01T04:15:21;102094.75;;;6.19;74.16
67457;BME280;54319;52.038;4.640;2023-02-01T04:17:48;102101.16;;;6.18;74.21
67457;BME280;54319;52.038;4.640;2023-02-01T04:20:15;102100.25;;;6.28;74.18
67457;BME280;54319;52.038;4.640;2023-02-01T04:22:43;102100.56;;;6.25;74.26
67457;BME280;54319;52.038;4.640;2023-02-01T04:25:11;102095.81;;;6.27;73.87
67457;BME280;54319;52.038;4.640;2023-02-01T04:27:39;102077.25;;;6.32;73.83
67457;BME280;54319;52.038;4.640;2023-02-01T04:30:07;102080.13;;;6.30;73.72
67457;BME280;54319;52.038;4.640;2023-02-01T04:32:36;102088.00;;;6.23;73.78
67457;BME280;54319;52.038;4.640;2023-02-01T04:35:03;102062.97;;;6.12;73.37
67457;BME280;54319;52.038;4.640;2023-02-01T04:37:30;102058.63;;;6.01;73.43
67457;BME280;54319;52.038;4.640;2023-02-01T04:39:57;102066.75;;;6.01;74.27
67457;BME280;54319;52.038;4.640;2023-02-01T04:42:24;102044.88;;;5.84;74.16
67457;BME280;54319;52.038;4.640;2023-02-01T04:44:52;102092.38;;;6.06;74.11
67457;BME280;54319;52.038;4.640;2023-02-01T04:47:19;102034.09;;;5.74;73.92
67457;BME280;54319;52.038;4.640;2023-02-01T04:49:47;102079.72;;;6.07;74.00
67457;BME280;54319;52.038;4.640;2023-02-01T04:52:13;102076.00;;;5.98;74.46
67457;BME280;54319;52.038;4.640;2023-02-01T04:54:41;102082.56;;;5.96;74.55
67457;BME280;54319;52.038;4.640;2023-02-01T04:57:07;102066.78;;;5.91;74.63
67457;BME280;54319;52.038;4.640;2023-02-01T04:59:34;102043.91;;;5.75;74.60
67457;BME280;54319;52.038;4.640;2023-02-01T05:02:02;102059.09;;;5.86;74.89
67457;BME280;54319;52.038;4.640;2023-02-01T05:04:29;102075.75;;;5.91;75.21
67457;BME280;54319;52.038;4.640;2023-02-01T05:06:56;102062.81;;;5.85;75.27
67457;BME280;54319;52.038;4.640;2023-02-01T05:09:24;102060.81;;;5.87;75.00
67457;BME280;54319;52.038;4.640;2023-02-01T05:11:50;102020.81;;;5.53;75.64
67457;BME280;54319;52.038;4.640;2023-02-01T05:14:35;102063.78;;;5.66;75.97
67457;BME280;54319;52.038;4.640;2023-02-01T05:17:03;102048.16;;;5.50;76.07
67457;BME280;54319;52.038;4.640;2023-02-01T05:19:30;102084.13;;;5.70;76.17
67457;BME280;54319;52.038;4.640;2023-02-01T05:21:57;102076.44;;;5.65;76.18
67457;BME280;54319;52.038;4.640;2023-02-01T05:24:24;102082.28;;;5.71;76.40
67457;BME280;54319;52.038;4.640;2023-02-01T05:26:52;102075.94;;;5.52;76.64
67457;BME280;54319;52.038;4.640;2023-02-01T05:29:19;102092.59;;;5.57;76.80
67457;BME280;54319;52.038;4.640;2023-02-01T05:31:47;102097.16;;;5.57;76.48
67457;BME280;54319;52.038;4.640;2023-02-01T05:34:16;102091.28;;;5.61;76.56
67457;BME280;54319;52.038;4.640;2023-02-01T05:36:43;102102.38;;;5.68;76.36
67457;BME280;54319;52.038;4.640;2023-02-01T05:39:10;102093.34;;;5.77;75.71
67457;BME280;54319;52.038;4.640;2023-02-01T05:41:37;102080.13;;;5.74;76.34
67457;BME280;54319;52.038;4.640;2023-02-01T05:44:04;102051.38;;;5.63;76.25
67457;BME280;54319;52.038;4.640;2023-02-01T05:46:32;102086.84;;;5.70;76.75
67457;BME280;54319;52.038;4.640;2023-02-01T05:49:01;102063.34;;;5.71;76.17
67457;BME280;54319;52.038;4.640;2023-02-01T05:51:29;102091.50;;;5.78;76.06
67457;BME280;54319;52.038;4.640;2023-02-01T05:53:56;102078.28;;;5.75;76.39
67457;BME280;54319;52.038;4.640;2023-02-01T05:56:23;102089.91;;;5.85;76.23
67457;BME280;54319;52.038;4.640;2023-02-01T05:58:50;102112.88;;;5.81;76.29
67457;BME280;54319;52.038;4.640;2023-02-01T06:01:16;102101.66;;;5.76;76.82
67457;BME280;54319;52.038;4.640;2023-02-01T06:03:45;102104.66;;;5.73;77.05
67457;BME280;54319;52.038;4.640;2023-02-01T06:06:13;102094.53;;;5.75;76.99
67457;BME280;54319;52.038;4.640;2023-02-01T06:08:40;102091.91;;;5.83;76.89
67457;BME280;54319;52.038;4.640;2023-02-01T06:11:08;102093.22;;;5.79;77.15
67457;BME280;54319;52.038;4.640;2023-02-01T06:13:34;102099.34;;;5.81;76.50
67457;BME280;54319;52.038;4.640;2023-02-01T06:16:04;102102.47;;;5.76;76.80
67457;BME280;54319;52.038;4.640;2023-02-01T06:18:32;102060.41;;;5.54;76.72
67457;BME280;54319;52.038;4.640;2023-02-01T06:20:59;102107.56;;;5.89;76.67
67457;BME280;54319;52.038;4.640;2023-02-01T06:23:26;102102.72;;;5.93;76.67
67457;BME280;54319;52.038;4.640;2023-02-01T06:26:00;102112.06;;;5.99;76.47
67457;BME280;54319;52.038;4.640;2023-02-01T06:28:28;102111.53;;;5.95;76.61
67457;BME280;54319;52.038;4.640;2023-02-01T06:30:55;102108.53;;;5.98;76.19
67457;BME280;54319;52.038;4.640;2023-02-01T06:33:24;102103.66;;;6.02;76.22
67457;BME280;54319;52.038;4.640;2023-02-01T06:35:56;102111.50;;;6.05;75.95
67457;BME280;54319;52.038;4.640;2023-02-01T06:38:23;102111.78;;;6.02;75.73
67457;BME280;54319;52.038;4.640;2023-02-01T06:40:51;102111.91;;;6.10;75.29
67457;BME280;54319;52.038;4.640;2023-02-01T06:43:19;102118.88;;;6.13;75.04
67457;BME280;54319;52.038;4.640;2023-02-01T06:45:47;102097.50;;;6.10;74.83
67457;BME280;54319;52.038;4.640;2023-02-01T06:48:14;102109.91;;;6.12;74.42
67457;BME280;54319;52.038;4.640;2023-02-01T06:50:41;102081.88;;;5.93;74.80
67457;BME280;54319;52.038;4.640;2023-02-01T06:53:07;102104.38;;;6.04;74.71
67457;BME280;54319;52.038;4.640;2023-02-01T06:55:34;102073.44;;;5.97;74.89
67457;BME280;54319;52.038;4.640;2023-02-01T06:58:01;102110.97;;;6.01;74.94
67457;BME280;54319;52.038;4.640;2023-02-01T07:00:30;102103.09;;;6.08;75.07
67457;BME280;54319;52.038;4.640;2023-02-01T07:02:57;102097.94;;;6.05;75.38
67457;BME280;54319;52.038;4.640;2023-02-01T07:05:26;102095.22;;;6.05;75.27
67457;BME280;54319;52.038;4.640;2023-02-01T07:07:52;102096.53;;;6.01;75.62
67457;BME280;54319;52.038;4.640;2023-02-01T07:10:19;102101.81;;;6.02;75.59
67457;BME280;54319;52.038;4.640;2023-02-01T07:12:46;102107.25;;;6.02;75.86
67457;BME280;54319;52.038;4.640;2023-02-01T07:15:13;102100.13;;;6.01;75.97
67457;BME280;54319;52.038;4.640;2023-02-01T07:17:41;102114.94;;;6.07;75.89
67457;BME280;54319;52.038;4.640;2023-02-01T07:20:10;102114.38;;;6.03;75.99
67457;BME280;54319;52.038;4.640;2023-02-01T07:22:37;102106.38;;;6.02;75.92
67457;BME280;54319;52.038;4.640;2023-02-01T07:25:05;102114.94;;;6.07;76.20
67457;BME280;54319;52.038;4.640;2023-02-01T07:27:33;102068.16;;;5.77;76.14
67457;BME280;54319;52.038;4.640;2023-02-01T07:30:00;102118.91;;;6.03;75.94
67457;BME280;54319;52.038;4.640;2023-02-01T07:32:29;102120.19;;;6.08;75.50
67457;BME280;54319;52.038;4.640;2023-02-01T07:34:57;102122.06;;;6.08;75.72
67457;BME280;54319;52.038;4.640;2023-02-01T07:37:25;102125.91;;;6.05;75.75
67457;BME280;54319;52.038;4.640;2023-02-01T07:39:52;102120.19;;;6.08;75.57
67457;BME280;54319;52.038;4.640;2023-02-01T07:42:19;102088.50;;;5.81;75.86
67457;BME280;54319;52.038;4.640;2023-02-01T07:44:46;102121.78;;;6.01;76.29
67457;BME280;54319;52.038;4.640;2023-02-01T07:47:13;102130.63;;;6.03;76.21
67457;BME280;54319;52.038;4.640;2023-02-01T07:49:40;102138.44;;;6.06;76.16
67457;BME280;54319;52.038;4.640;2023-02-01T07:52:08;102132.88;;;6.08;76.21
67457;BME280;54319;52.038;4.640;2023-02-01T07:54:36;102137.13;;;6.11;76.06
67457;BME280;54319;52.038;4.640;2023-02-01T07:57:03;102151.28;;;6.04;76.43
67457;BME280;54319;52.038;4.640;2023-02-01T07:59:30;102150.28;;;6.05;76.74
67457;BME280;54319;52.038;4.640;2023-02-01T08:01:56;102140.47;;;5.94;76.86
67457;BME280;54319;52.038;4.640;2023-02-01T08:04:23;102138.88;;;6.02;76.91
67457;BME280;54319;52.038;4.640;2023-02-01T08:06:49;102149.72;;;6.02;77.19
67457;BME280;54319;52.038;4.640;2023-02-01T08:09:19;102135.16;;;6.03;77.06
67457;BME280;54319;52.038;4.640;2023-02-01T08:11:46;102129.44;;;6.06;76.82
67457;BME280;54319;52.038;4.640;2023-02-01T08:14:13;102081.81;;;5.75;76.71
67457;BME280;54319;52.038;4.640;2023-02-01T08:16:39;102127.16;;;6.11;76.77
67457;BME280;54319;52.038;4.640;2023-02-01T08:19:06;102125.75;;;6.07;76.82
67457;BME280;54319;52.038;4.640;2023-02-01T08:21:33;102116.31;;;6.11;76.46
67457;BME280;54319;52.038;4.640;2023-02-01T08:24:07;102116.03;;;6.14;76.53
67457;BME280;54319;52.038;4.640;2023-02-01T08:26:35;102129.97;;;6.19;76.68
67457;BME280;54319;52.038;4.640;2023-02-01T08:29:04;102112.53;;;6.22;76.46
67457;BME280;54319;52.038;4.640;2023-02-01T08:31:31;102073.28;;;6.08;76.25
67457;BME280;54319;52.038;4.640;2023-02-01T08:34:00;102115.88;;;6.34;75.85
67457;BME280;54319;52.038;4.640;2023-02-01T08:36:30;102110.84;;;6.39;75.76
67457;BME280;54319;52.038;4.640;2023-02-01T08:38:57;102076.41;;;6.31;75.22
67457;BME280;54319;52.038;4.640;2023-02-01T08:41:26;102109.66;;;6.51;75.20
67457;BME280;54319;52.038;4.640;2023-02-01T08:43:56;102056.72;;;6.11;75.00
67457;BME280;54319;52.038;4.640;2023-02-01T08:46:23;102117.47;;;6.55;75.29
67457;BME280;54319;52.038;4.640;2023-02-01T08:48:50;102129.72;;;6.59;75.01
67457;BME280;54319;52.038;4.640;2023-02-01T08:51:18;102100.34;;;6.54;75.14
67457;BME280;54319;52.038;4.640;2023-02-01T08:53:46;102098.44;;;6.64;74.75
67457;BME280;54319;52.038;4.640;2023-02-01T08:56:13;102106.38;;;6.66;74.59
67457;BME280;54319;52.038;4.640;2023-02-01T08:58:40;102095.22;;;6.69;74.61
67457;BME280;54319;52.038;4.640;2023-02-01T09:01:11;102088.78;;;6.70;74.44
67457;BME280;54319;52.038;4.640;2023-02-01T09:03:38;102084.75;;;6.74;74.56
67457;BME280;54319;52.038;4.640;2023-02-01T09:06:07;102099.63;;;6.88;74.21
67457;BME280;54319;52.038;4.640;2023-02-01T09:08:36;102096.84;;;6.98;74.33
67457;BME280;54319;52.038;4.640;2023-02-01T09:11:06;102068.22;;;7.04;73.71
67457;BME280;54319;52.038;4.640;2023-02-01T09:13:33;102080.50;;;7.16;74.04
67457;BME280;54319;52.038;4.640;2023-02-01T09:16:01;102085.06;;;7.16;73.79
67457;BME280;54319;52.038;4.640;2023-02-01T09:18:29;102074.63;;;7.21;72.88
67457;BME280;54319;52.038;4.640;2023-02-01T09:20:56;102069.63;;;7.08;73.09
67457;BME280;54319;52.038;4.640;2023-02-01T09:23:23;102092.91;;;7.19;73.35
67457;BME280;54319;52.038;4.640;2023-02-01T09:25:50;102082.38;;;7.16;73.22
67457;BME280;54319;52.038;4.640;2023-02-01T09:28:17;102093.31;;;7.24;72.74
67457;BME280;54319;52.038;4.640;2023-02-01T09:30:44;102089.50;;;7.17;72.60
67457;BME280;54319;52.038;4.640;2023-02-01T09:33:11;102095.94;;;7.16;72.21
67457;BME280;54319;52.038;4.640;2023-02-01T09:35:40;102096.63;;;7.18;72.41
67457;BME280;54319;52.038;4.640;2023-02-01T09:38:06;102106.97;;;7.14;72.88
67457;BME280;54319;52.038;4.640;2023-02-01T09:40:34;102088.44;;;7.09;72.94
67457;BME280;54319;52.038;4.640;2023-02-01T09:43:15;102098.31;;;7.19;71.72
67457;BME280;54319;52.038;4.640;2023-02-01T09:45:52;102078.97;;;7.14;71.56
67457;BME280;54319;52.038;4.640;2023-02-01T09:48:27;102104.47;;;7.21;71.99
67457;BME280;54319;52.038;4.640;2023-02-01T09:50:58;102121.44;;;7.23;71.20
67457;BME280;54319;52.038;4.640;2023-02-01T09:53:29;102124.50;;;7.20;71.46
67457;BME280;54319;52.038;4.640;2023-02-01T09:56:03;102130.19;;;7.17;71.52
67457;BME280;54319;52.038;4.640;2023-02-01T09:58:35;102054.00;;;6.84;71.82
67457;BME280;54319;52.038;4.640;2023-02-01T10:01:08;102086.31;;;6.95;71.77
67457;BME280;54319;52.038;4.640;2023-02-01T10:03:37;102085.94;;;6.90;72.78
67457;BME280;54319;52.038;4.640;2023-02-01T10:06:09;102119.94;;;7.02;72.70
67457;BME280;54319;52.038;4.640;2023-02-01T10:11:44;102104.75;;;6.91;72.62
67457;BME280;54319;52.038;4.640;2023-02-01T10:14:36;102118.22;;;7.01;72.85
67457;BME280;54319;52.038;4.640;2023-02-01T10:17:13;102103.59;;;6.94;72.27
67457;BME280;54319;52.038;4.640;2023-02-01T10:19:48;102119.59;;;7.05;72.20
67457;BME280;54319;52.038;4.640;2023-02-01T10:22:30;102127.59;;;7.07;72.47
67457;BME280;54319;52.038;4.640;2023-02-01T10:25:08;102114.88;;;7.07;72.83
67457;BME280;54319;52.038;4.640;2023-02-01T10:27:39;102126.41;;;7.09;72.65
67457;BME280;54319;52.038;4.640;2023-02-01T10:30:13;102118.81;;;7.13;72.37
67457;BME280;54319;52.038;4.640;2023-02-01T10:32:42;102124.50;;;7.20;72.12
67457;BME280;54319;52.038;4.640;2023-02-01T10:35:13;102102.91;;;7.18;72.45
67457;BME280;54319;52.038;4.640;2023-02-01T10:37:43;102097.63;;;7.17;72.38
67457;BME280;54319;52.038;4.640;2023-02-01T10:40:16;102104.31;;;7.22;72.24
67457;BME280;54319;52.038;4.640;2023-02-01T10:42:45;102112.06;;;7.44;71.57
67457;BME280;54319;52.038;4.640;2023-02-01T10:45:15;102114.31;;;7.48;71.92
67457;BME280;54319;52.038;4.640;2023-02-01T10:47:42;102107.69;;;7.51;71.50
67457;BME280;54319;52.038;4.640;2023-02-01T10:50:17;102087.31;;;7.47;71.39
67457;BME280;54319;52.038;4.640;2023-02-01T10:52:51;102114.22;;;7.58;71.11
67457;BME280;54319;52.038;4.640;2023-02-01T10:55:27;102080.72;;;7.49;71.19
67457;BME280;54319;52.038;4.640;2023-02-01T10:57:56;102091.09;;;7.54;71.61
67457;BME280;54319;52.038;4.640;2023-02-01T11:00:24;102100.78;;;7.57;71.32
67457;BME280;54319;52.038;4.640;2023-02-01T11:02:52;102103.81;;;7.53;71.44
67457;BME280;54319;52.038;4.640;2023-02-01T11:05:20;102081.84;;;7.38;71.48
67457;BME280;54319;52.038;4.640;2023-02-01T11:07:49;102115.84;;;7.51;71.48
67457;BME280;54319;52.038;4.640;2023-02-01T11:10:35;102100.06;;;7.46;71.55
67457;BME280;54319;52.038;4.640;2023-02-01T11:13:04;102107.88;;;7.49;71.27
67457;BME280;54319;52.038;4.640;2023-02-01T11:15:31;102098.22;;;7.55;71.05
67457;BME280;54319;52.038;4.640;2023-02-01T11:18:14;102093.25;;;7.42;71.78
67457;BME280;54319;52.038;4.640;2023-02-01T11:20:42;102075.28;;;7.49;71.48
67457;BME280;54319;52.038;4.640;2023-02-01T11:23:16;102087.84;;;7.50;71.44
67457;BME280;54319;52.038;4.640;2023-02-01T11:25:51;102075.97;;;7.51;71.18
67457;BME280;54319;52.038;4.640;2023-02-01T11:28:21;102095.25;;;7.66;70.80
67457;BME280;54319;52.038;4.640;2023-02-01T11:30:51;102081.00;;;7.73;70.93
67457;BME280;54319;52.038;4.640;2023-02-01T11:33:24;102088.81;;;7.76;70.60
67457;BME280;54319;52.038;4.640;2023-02-01T11:35:55;102097.66;;;7.78;70.45
67457;BME280;54319;52.038;4.640;2023-02-01T11:38:27;102081.38;;;7.78;70.46
67457;BME280;54319;52.038;4.640;2023-02-01T11:40:55;102065.38;;;7.75;70.16
67457;BME280;54319;52.038;4.640;2023-02-01T11:43:24;102090.22;;;7.88;69.56
67457;BME280;54319;52.038;4.640;2023-02-01T11:45:58;102083.41;;;7.84;69.52
67457;BME280;54319;52.038;4.640;2023-02-01T11:48:27;102090.91;;;7.90;70.10
67457;BME280;54319;52.038;4.640;2023-02-01T11:51:07;102083.16;;;8.04;69.55
67457;BME280;54319;52.038;4.640;2023-02-01T11:53:46;102079.91;;;8.00;69.34
67457;BME280;54319;52.038;4.640;2023-02-01T11:56:25;102073.75;;;7.81;69.54
67457;BME280;54319;52.038;4.640;2023-02-01T12:02:03;102085.31;;;7.92;69.94
67457;BME280;54319;52.038;4.640;2023-02-01T12:04:59;102077.84;;;7.86;70.46
67457;BME280;54319;52.038;4.640;2023-02-01T12:07:42;102021.81;;;7.50;70.20
67457;BME280;54319;52.038;4.640;2023-02-01T12:10:26;102082.72;;;7.82;70.33
67457;BME280;54319;52.038;4.640;2023-02-01T12:13:05;102074.56;;;7.74;71.66
67457;BME280;54319;52.038;4.640;2023-02-01T12:15:45;102045.81;;;7.63;71.18
67457;BME280;54319;52.038;4.640;2023-02-01T12:18:30;102065.38;;;7.75;70.61
67457;BME280;54319;52.038;4.640;2023-02-01T12:21:20;102070.28;;;7.71;71.10
67457;BME280;54319;52.038;4.640;2023-02-01T12:24:09;102068.41;;;7.63;71.29
67457;BME280;54319;52.038;4.640;2023-02-01T12:26:52;102061.13;;;7.72;71.08
67457;BME280;54319;52.038;4.640;2023-02-01T12:29:43;102074.88;;;7.71;70.88
67457;BME280;54319;52.038;4.640;2023-02-01T12:32:28;102048.44;;;7.81;70.77
67457;BME280;54319;52.038;4.640;2023-02-01T12:35:13;102051.22;;;7.97;70.18
67457;BME280;54319;52.038;4.640;2023-02-01T12:37:59;102065.16;;;8.03;70.58
67457;BME280;54319;52.038;4.640;2023-02-01T12:40:46;102058.53;;;8.05;70.09
67457;BME280;54319;52.038;4.640;2023-02-01T12:43:21;102059.00;;;7.92;70.50
67457;BME280;54319;52.038;4.640;2023-02-01T12:45:54;102041.09;;;7.73;70.95
67457;BME280;54319;52.038;4.640;2023-02-01T12:48:29;102051.34;;;7.79;71.18
67457;BME280;54319;52.038;4.640;2023-02-01T12:51:00;102049.81;;;7.85;70.16
67457;BME280;54319;52.038;4.640;2023-02-01T12:53:33;102025.31;;;7.68;70.86
67457;BME280;54319;52.038;4.640;2023-02-01T12:56:09;102050.03;;;8.00;70.54
67457;BME280;54319;52.038;4.640;2023-02-01T12:58:42;102048.53;;;8.14;70.11
67457;BME280;54319;52.038;4.640;2023-02-01T13:01:15;102056.16;;;8.10;70.30
67457;BME280;54319;52.038;4.640;2023-02-01T13:03:53;102051.03;;;7.99;70.29
67457;BME280;54319;52.038;4.640;2023-02-01T13:06:24;102039.00;;;8.02;70.61
67457;BME280;54319;52.038;4.640;2023-02-01T13:08:57;102060.06;;;8.00;70.79
67457;BME280;54319;52.038;4.640;2023-02-01T13:11:31;102046.13;;;8.03;70.58
67457;BME280;54319;52.038;4.640;2023-02-01T13:14:03;102049.69;;;8.03;71.12
67457;BME280;54319;52.038;4.640;2023-02-01T13:16:35;102062.44;;;8.03;70.69
67457;BME280;54319;52.038;4.640;2023-02-01T13:19:10;102050.56;;;8.04;71.06
67457;BME280;54319;52.038;4.640;2023-02-01T13:21:45;102058.69;;;7.95;71.16
67457;BME280;54319;52.038;4.640;2023-02-01T13:24:24;102063.59;;;7.92;71.77
67457;BME280;54319;52.038;4.640;2023-02-01T13:26:54;102024.41;;;7.60;72.29
67457;BME280;54319;52.038;4.640;2023-02-01T13:29:24;102020.13;;;7.49;72.35
67457;BME280;54319;52.038;4.640;2023-02-01T13:32:09;102051.97;;;7.73;72.87
67457;BME280;54319;52.038;4.640;2023-02-01T13:38:03;102051.16;;;7.89;71.62